Time;durP1;ratioP1;P1;durP2;ratioP2;P2;SDS_P1;SDS_P2;PMS_P1;PMS_P2;Temp;Humidity;BMP_temperature;BMP_pressure;BME280_temperature;BME280_humidity;BME280_pressure;Samples;Min_cycle;Max_cycle;Signal;HPM_P1;HPM_P2
2023/04/27 00:00:10;;;;;;;17.23;6.47;;;7.40;99.90;;;;;;5043956;28;20039;-49
2023/04/27 00:02:37;;;;;;;14.82;6.65;;;7.30;99.90;;;;;;5072190;28;20024;-51
2023/04/27 00:05:04;;;;;;;15.68;7.45;;;7.40;99.90;;;;;;5072209;28;20436;-47
2023/04/27 00:07:30;;;;;;;16.80;6.68;;;7.30;99.90;;;;;;5072094;28;20025;-54
2023/04/27 00:09:55;;;;;;;14.60;7.03;;;7.30;99.90;;;;;;5071778;28;20017;-48
2023/04/27 00:12:21;;;;;;;16.45;6.85;;;7.30;99.90;;;;;;5071835;28;20040;-45
2023/04/27 00:14:47;;;;;;;17.05;7.35;;;7.20;99.90;;;;;;5071938;28;20447;-47
2023/04/27 00:17:12;;;;;;;18.38;7.20;;;7.20;99.90;;;;;;5072052;28;20066;-48
2023/04/27 00:19:41;;;;;;;14.27;7.50;;;7.10;99.90;;;;;;5072111;28;20032;-49
2023/04/27 00:22:07;;;;;;;18.13;7.85;;;7.10;99.90;;;;;;5067650;28;20025;-50
2023/04/27 00:24:33;;;;;;;15.88;7.20;;;7.10;99.90;;;;;;5071823;28;20116;-46
2023/04/27 00:26:59;;;;;;;14.00;7.68;;;7.00;99.90;;;;;;5071677;28;20491;-44
2023/04/27 00:29:24;;;;;;;15.05;7.85;;;7.00;99.90;;;;;;5071485;28;20028;-44
2023/04/27 00:31:50;;;;;;;17.75;7.50;;;7.00;99.90;;;;;;5053433;28;20036;-46
2023/04/27 00:34:15;;;;;;;15.20;7.40;;;7.00;99.90;;;;;;5071511;28;20017;-47
2023/04/27 00:36:41;;;;;;;17.75;7.43;;;6.90;99.90;;;;;;5071548;28;20040;-47
2023/04/27 00:39:07;;;;;;;19.35;7.47;;;7.00;99.90;;;;;;5070137;28;20025;-47
2023/04/27 00:41:37;;;;;;;16.83;7.70;;;6.90;99.90;;;;;;5046184;28;20020;-46
2023/04/27 00:44:02;;;;;;;16.58;8.10;;;6.90;99.90;;;;;;5071162;28;20449;-47
2023/04/27 00:46:28;;;;;;;20.20;8.50;;;6.90;99.90;;;;;;5071044;28;20494;-47
2023/04/27 00:48:55;;;;;;;15.70;8.07;;;6.90;99.90;;;;;;5071236;28;20021;-46
2023/04/27 00:51:21;;;;;;;17.42;8.02;;;6.90;99.90;;;;;;5068225;28;20020;-50
2023/04/27 00:53:49;;;;;;;17.60;8.30;;;6.80;99.90;;;;;;5061092;28;20032;-47
2023/04/27 00:56:15;;;;;;;19.65;8.60;;;6.80;99.90;;;;;;5071080;28;20392;-51
2023/04/27 00:58:41;;;;;;;18.58;9.40;;;6.90;99.90;;;;;;5071649;28;20020;-52
2023/04/27 01:01:07;;;;;;;18.30;9.02;;;6.90;99.90;;;;;;5070711;28;20048;-48
2023/04/27 01:03:33;;;;;;;19.90;9.48;;;6.90;99.90;;;;;;5071195;28;20064;-52
2023/04/27 01:06:00;;;;;;;21.02;8.90;;;6.90;99.90;;;;;;5070956;28;20050;-52
2023/04/27 01:08:29;;;;;;;16.92;9.25;;;6.90;99.90;;;;;;5052630;28;20052;-44
2023/04/27 01:10:55;;;;;;;23.75;9.52;;;6.90;99.90;;;;;;5059531;28;20452;-50
2023/04/27 01:13:21;;;;;;;16.80;8.93;;;6.90;99.90;;;;;;5066845;28;20044;-44
2023/04/27 01:15:47;;;;;;;22.85;10.27;;;6.90;99.90;;;;;;5070897;28;20024;-51
2023/04/27 01:18:13;;;;;;;22.90;10.18;;;6.90;99.90;;;;;;5071042;28;20028;-45
2023/04/27 01:20:39;;;;;;;22.88;10.43;;;6.90;99.90;;;;;;5070822;28;20021;-50
2023/04/27 01:23:04;;;;;;;18.75;8.75;;;6.90;99.90;;;;;;5066552;28;20109;-44
2023/04/27 01:25:30;;;;;;;22.98;9.70;;;6.90;99.90;;;;;;5070405;28;20019;-51
2023/04/27 01:27:56;;;;;;;19.35;9.85;;;6.80;99.90;;;;;;5070191;28;20159;-44
2023/04/27 01:30:21;;;;;;;20.25;10.10;;;6.80;99.90;;;;;;5070530;28;20028;-47
2023/04/27 01:32:48;;;;;;;19.23;9.70;;;6.80;99.90;;;;;;5070088;28;20040;-49
2023/04/27 01:35:14;;;;;;;22.52;11.43;;;6.80;99.90;;;;;;5052476;28;20162;-46
2023/04/27 01:37:40;;;;;;;22.38;11.60;;;6.90;99.90;;;;;;5070593;28;20058;-46
2023/04/27 01:40:06;;;;;;;23.65;11.75;;;6.90;99.90;;;;;;5070194;28;20028;-50
2023/04/27 01:42:32;;;;;;;24.55;11.75;;;6.90;99.90;;;;;;5070452;28;20437;-45
2023/04/27 01:44:59;;;;;;;23.52;11.00;;;6.90;99.90;;;;;;5070222;28;20116;-50
2023/04/27 01:47:25;;;;;;;21.48;11.68;;;6.80;99.90;;;;;;5070331;28;20164;-52
2023/04/27 01:49:51;;;;;;;25.20;11.77;;;6.90;99.90;;;;;;5069873;28;20392;-47
2023/04/27 01:52:16;;;;;;;22.65;12.23;;;6.80;99.90;;;;;;5059891;28;20043;-48
2023/04/27 01:54:42;;;;;;;25.80;11.95;;;6.80;99.90;;;;;;5067205;28;20024;-44
2023/04/27 01:57:08;;;;;;;23.60;12.55;;;6.70;99.90;;;;;;5070058;28;20071;-49
2023/04/27 01:59:33;;;;;;;21.27;11.27;;;6.70;99.90;;;;;;5056211;28;20029;-45
2023/04/27 02:01:59;;;;;;;28.90;13.20;;;6.70;99.90;;;;;;5050708;28;20065;-51
2023/04/27 02:04:25;;;;;;;29.98;13.82;;;6.70;99.90;;;;;;5049855;28;20036;-46
2023/04/27 02:06:51;;;;;;;23.85;12.35;;;6.70;99.90;;;;;;5049734;28;20099;-47
2023/04/27 02:09:16;;;;;;;26.85;12.15;;;6.60;99.90;;;;;;5049662;28;20050;-43
2023/04/27 02:11:42;;;;;;;24.15;12.63;;;6.70;99.90;;;;;;5049663;28;20361;-47
2023/04/27 02:14:07;;;;;;;25.92;14.07;;;6.60;99.90;;;;;;5049823;28;20052;-46
2023/04/27 02:16:33;;;;;;;27.60;13.52;;;6.60;99.90;;;;;;5049861;28;20147;-51
2023/04/27 02:18:59;;;;;;;25.35;12.73;;;6.60;99.90;;;;;;5050106;28;20376;-46
2023/04/27 02:21:25;;;;;;;25.98;13.68;;;6.50;99.90;;;;;;5046973;28;20388;-44
2023/04/27 02:23:50;;;;;;;24.92;12.10;;;6.50;99.90;;;;;;5040076;28;20021;-47
2023/04/27 02:26:21;;;;;;;28.38;14.15;;;6.50;99.90;;;;;;5049390;28;20021;-47
2023/04/27 02:28:47;;;;;;;29.23;13.68;;;6.40;99.90;;;;;;5049036;28;20039;-54
2023/04/27 02:31:13;;;;;;;26.25;13.75;;;6.40;99.90;;;;;;5049496;28;20052;-48
2023/04/27 02:33:40;;;;;;;26.85;13.70;;;6.40;99.90;;;;;;5049753;28;20056;-52
2023/04/27 02:36:06;;;;;;;27.63;13.52;;;6.40;99.90;;;;;;5031274;28;20032;-46
2023/04/27 02:38:33;;;;;;;31.42;14.98;;;6.40;99.90;;;;;;5049414;28;20028;-48
2023/04/27 02:40:58;;;;;;;29.55;14.23;;;6.30;99.90;;;;;;5049169;28;20043;-44
2023/04/27 02:43:24;;;;;;;27.35;14.13;;;6.40;99.90;;;;;;5049634;28;20399;-47
2023/04/27 02:45:50;;;;;;;30.98;14.88;;;6.40;99.90;;;;;;5049666;28;20029;-49
2023/04/27 02:48:15;;;;;;;32.60;14.73;;;6.40;99.90;;;;;;5035232;28;20078;-46
2023/04/27 02:50:42;;;;;;;31.58;14.85;;;6.50;99.90;;;;;;5060380;28;20028;-49
2023/04/27 02:53:09;;;;;;;28.63;14.82;;;6.60;99.90;;;;;;5065020;28;20045;-45
2023/04/27 02:55:35;;;;;;;28.25;14.88;;;6.50;99.90;;;;;;5064028;28;20020;-46
2023/04/27 02:58:00;;;;;;;26.65;15.00;;;6.60;99.90;;;;;;5069337;28;20031;-46
2023/04/27 03:00:26;;;;;;;29.98;15.57;;;6.50;99.90;;;;;;5069154;28;20051;-48
2023/04/27 03:02:52;;;;;;;28.02;14.77;;;6.50;99.90;;;;;;5069035;28;20024;-52
2023/04/27 03:05:18;;;;;;;29.95;15.27;;;6.60;99.90;;;;;;5069342;28;20020;-52
2023/04/27 03:07:43;;;;;;;31.83;15.98;;;6.60;99.90;;;;;;5062796;28;20029;-47
2023/04/27 03:10:09;;;;;;;30.42;14.85;;;6.60;99.90;;;;;;5049403;28;20143;-50
2023/04/27 03:12:35;;;;;;;29.80;15.27;;;6.50;99.90;;;;;;5049057;28;20115;-45
2023/04/27 03:15:01;;;;;;;31.83;15.52;;;6.50;99.90;;;;;;5049050;28;20518;-46
2023/04/27 03:17:27;;;;;;;27.58;13.93;;;6.50;99.90;;;;;;5049171;28;20028;-44
2023/04/27 03:19:52;;;;;;;28.08;15.23;;;6.50;99.90;;;;;;5049020;28;20017;-46
2023/04/27 03:22:18;;;;;;;31.75;14.93;;;6.50;99.90;;;;;;5031640;28;20107;-48
2023/04/27 03:24:44;;;;;;;30.40;15.60;;;6.50;99.90;;;;;;5049301;28;20025;-49
2023/04/27 03:27:10;;;;;;;32.45;14.48;;;6.40;99.90;;;;;;5049295;28;20028;-49
2023/04/27 03:29:36;;;;;;;33.08;15.27;;;6.30;99.90;;;;;;5049257;28;20047;-50
2023/04/27 03:32:03;;;;;;;26.20;15.60;;;6.30;99.90;;;;;;5048946;28;20078;-52
2023/04/27 03:34:29;;;;;;;36.30;16.30;;;6.30;99.90;;;;;;5052236;28;20025;-45
2023/04/27 03:36:55;;;;;;;34.50;16.13;;;6.30;99.90;;;;;;5052651;28;20025;-54
2023/04/27 03:39:21;;;;;;;32.45;16.70;;;6.30;99.90;;;;;;5052683;28;20111;-45
2023/04/27 03:41:46;;;;;;;34.15;15.85;;;6.30;99.90;;;;;;5053250;28;20061;-49
2023/04/27 03:44:12;;;;;;;31.10;16.42;;;6.30;99.90;;;;;;5053144;28;20035;-48
2023/04/27 03:46:38;;;;;;;31.75;16.95;;;6.30;99.90;;;;;;5052758;28;20013;-49
2023/04/27 03:49:03;;;;;;;33.35;15.65;;;6.30;99.90;;;;;;5051981;28;20029;-45
2023/04/27 03:51:33;;;;;;;32.20;16.83;;;6.30;99.90;;;;;;5048649;28;20100;-50
2023/04/27 03:53:59;;;;;;;35.30;16.98;;;6.30;99.90;;;;;;5052350;28;20435;-44
2023/04/27 03:56:24;;;;;;;34.65;16.77;;;6.30;99.90;;;;;;5052273;28;20408;-45
2023/04/27 03:58:50;;;;;;;31.60;17.20;;;6.30;99.90;;;;;;5052214;28;20028;-47
2023/04/27 04:01:17;;;;;;;28.77;16.83;;;6.30;99.90;;;;;;5052322;28;20036;-48
2023/04/27 04:03:43;;;;;;;37.50;18.33;;;6.40;99.90;;;;;;5050943;28;20019;-45
2023/04/27 04:06:10;;;;;;;36.10;16.75;;;6.40;99.90;;;;;;5052489;28;20569;-51
2023/04/27 04:08:36;;;;;;;39.05;18.23;;;6.40;99.90;;;;;;5052321;28;20058;-52
2023/04/27 04:11:02;;;;;;;34.35;18.40;;;6.40;99.90;;;;;;5051915;28;20028;-45
2023/04/27 04:13:28;;;;;;;35.40;18.13;;;6.40;99.90;;;;;;5051650;28;20389;-50
2023/04/27 04:16:05;;;;;;;38.63;19.95;;;6.40;99.90;;;;;;5051811;28;20023;-45
2023/04/27 04:18:31;;;;;;;35.28;19.30;;;6.40;99.90;;;;;;5052005;28;20484;-49
2023/04/27 04:20:57;;;;;;;35.72;19.08;;;6.40;99.90;;;;;;5038644;28;20033;-45
2023/04/27 04:23:22;;;;;;;36.88;18.65;;;6.40;99.90;;;;;;5052160;28;20021;-45
2023/04/27 04:25:48;;;;;;;36.33;19.27;;;6.40;99.90;;;;;;5060415;28;20082;-50
2023/04/27 04:28:15;;;;;;;37.63;19.15;;;6.40;99.90;;;;;;5046574;28;20031;-54
2023/04/27 04:30:40;;;;;;;36.40;19.45;;;6.40;99.90;;;;;;5071347;28;20032;-43
2023/04/27 04:33:07;;;;;;;38.45;20.60;;;6.50;99.90;;;;;;5071317;28;20032;-47
2023/04/27 04:35:33;;;;;;;37.85;20.02;;;6.50;99.90;;;;;;5071425;28;20070;-48
2023/04/27 04:37:59;;;;;;;40.03;19.58;;;6.50;99.90;;;;;;5071448;28;20021;-48
2023/04/27 04:40:25;;;;;;;37.40;20.20;;;6.50;99.90;;;;;;5053915;28;20021;-47
2023/04/27 04:42:51;;;;;;;42.47;20.85;;;6.50;99.90;;;;;;5071756;28;20024;-46
2023/04/27 04:45:17;;;;;;;43.75;20.13;;;6.50;99.90;;;;;;5070584;28;20029;-50
2023/04/27 04:47:43;;;;;;;38.28;20.10;;;6.50;99.90;;;;;;5071291;28;20077;-49
2023/04/27 04:50:09;;;;;;;43.88;20.98;;;6.50;99.90;;;;;;5070815;28;20016;-46
2023/04/27 04:52:36;;;;;;;42.55;22.08;;;6.50;99.90;;;;;;5071036;28;20047;-44
2023/04/27 04:55:02;;;;;;;41.92;21.35;;;6.50;99.90;;;;;;5070850;28;20035;-50
2023/04/27 04:57:29;;;;;;;36.90;20.10;;;6.50;99.90;;;;;;5070048;28;20028;-47
2023/04/27 04:59:55;;;;;;;37.63;20.85;;;6.50;99.90;;;;;;5071095;28;20021;-43
2023/04/27 05:02:20;;;;;;;39.22;21.65;;;6.50;99.90;;;;;;5071374;28;20040;-46
2023/04/27 05:04:46;;;;;;;38.65;19.70;;;6.60;99.90;;;;;;5070736;28;20036;-44
2023/04/27 05:07:12;;;;;;;37.42;19.92;;;6.60;99.90;;;;;;5069150;28;20479;-46
2023/04/27 05:09:38;;;;;;;39.08;21.85;;;6.60;99.90;;;;;;5050967;28;20013;-43
2023/04/27 05:12:04;;;;;;;43.00;20.67;;;6.70;99.90;;;;;;5050645;28;20032;-48
2023/04/27 05:14:30;;;;;;;40.92;22.27;;;6.70;99.90;;;;;;5053611;28;20405;-49
2023/04/27 05:16:55;;;;;;;33.97;19.30;;;6.80;99.90;;;;;;5054712;28;20040;-44
2023/04/27 05:19:21;;;;;;;41.20;20.15;;;6.80;99.90;;;;;;5054316;28;20093;-44
2023/04/27 05:21:47;;;;;;;41.22;20.30;;;6.90;99.90;;;;;;5053584;28;20025;-49
2023/04/27 05:24:12;;;;;;;37.42;20.83;;;6.90;99.90;;;;;;5050340;28;20021;-48
2023/04/27 05:26:38;;;;;;;36.45;20.70;;;7.00;99.90;;;;;;5047954;28;20021;-50
2023/04/27 05:29:04;;;;;;;39.95;20.98;;;7.00;99.90;;;;;;5044105;28;20028;-49
2023/04/27 05:31:29;;;;;;;37.35;20.00;;;7.10;99.90;;;;;;5050327;28;20017;-49
2023/04/27 05:33:55;;;;;;;36.33;19.00;;;7.20;99.90;;;;;;5050128;28;20095;-55
2023/04/27 05:36:21;;;;;;;33.00;19.25;;;7.30;99.90;;;;;;5050468;28;20379;-47
2023/04/27 05:38:46;;;;;;;31.95;17.60;;;7.50;99.90;;;;;;5050459;28;20083;-47
2023/04/27 05:41:12;;;;;;;32.30;17.80;;;7.70;99.90;;;;;;5049974;28;20067;-54
2023/04/27 05:43:38;;;;;;;37.90;18.83;;;7.90;99.90;;;;;;5050341;28;20071;-45
2023/04/27 05:46:03;;;;;;;34.78;18.73;;;8.20;99.90;;;;;;5050121;28;20061;-50
2023/04/27 05:48:29;;;;;;;29.63;16.30;;;8.50;99.90;;;;;;5050068;28;20107;-46
2023/04/27 05:51:00;;;;;;;31.13;17.40;;;8.70;99.90;;;;;;5051000;28;20692;-55
2023/04/27 05:53:26;;;;;;;30.48;17.40;;;8.80;99.90;;;;;;5050403;28;20143;-58
2023/04/27 05:55:51;;;;;;;27.88;16.42;;;8.90;99.90;;;;;;5050800;28;20450;-49
2023/04/27 05:58:17;;;;;;;29.35;17.02;;;9.00;99.90;;;;;;5049955;28;20400;-50
2023/04/27 06:00:42;;;;;;;25.58;16.40;;;9.10;99.90;;;;;;5050432;28;20017;-52
2023/04/27 06:03:08;;;;;;;29.73;16.50;;;9.10;99.90;;;;;;5049841;28;20044;-44
2023/04/27 06:05:34;;;;;;;31.85;17.98;;;9.00;99.90;;;;;;5050442;28;20020;-50
2023/04/27 06:07:59;;;;;;;28.50;15.68;;;9.10;99.90;;;;;;5050309;28;20029;-51
2023/04/27 06:10:25;;;;;;;27.35;16.08;;;9.10;99.90;;;;;;5050273;28;20029;-52
2023/04/27 06:12:50;;;;;;;28.75;16.73;;;9.10;99.90;;;;;;5050371;28;20049;-47
2023/04/27 06:15:16;;;;;;;23.88;14.77;;;9.10;99.90;;;;;;5050348;28;20025;-47
2023/04/27 06:17:45;;;;;;;32.20;15.98;;;9.30;99.90;;;;;;5050317;28;20078;-52
2023/04/27 06:20:11;;;;;;;25.00;15.93;;;9.50;99.90;;;;;;5050581;28;20017;-44
2023/04/27 06:22:37;;;;;;;27.13;16.50;;;9.80;99.90;;;;;;5050125;28;20266;-48
2023/04/27 06:25:04;;;;;;;26.45;15.25;;;10.10;99.90;;;;;;5032197;28;20033;-50
2023/04/27 06:27:30;;;;;;;24.88;14.57;;;10.60;99.90;;;;;;5041352;28;20112;-44
2023/04/27 06:29:56;;;;;;;25.75;14.27;;;10.70;99.90;;;;;;5050300;28;20120;-55
2023/04/27 06:32:22;;;;;;;28.05;15.90;;;10.80;99.90;;;;;;5049730;28;20163;-46
2023/04/27 06:34:48;;;;;;;27.25;14.95;;;10.50;99.90;;;;;;5050120;28;20104;-46
2023/04/27 06:37:15;;;;;;;25.63;14.90;;;10.40;99.90;;;;;;5050268;28;20135;-47
2023/04/27 06:39:43;;;;;;;23.98;14.45;;;10.40;99.90;;;;;;5050039;28;20460;-45
2023/04/27 06:42:09;;;;;;;23.85;14.38;;;10.60;99.90;;;;;;5050000;28;20464;-47
2023/04/27 06:44:34;;;;;;;22.92;15.02;;;10.60;99.90;;;;;;5050252;28;20036;-49
2023/04/27 06:47:01;;;;;;;25.30;14.60;;;10.60;99.90;;;;;;5032291;28;20024;-49
2023/04/27 06:49:26;;;;;;;25.15;15.32;;;10.90;99.90;;;;;;5050169;28;20021;-49
2023/04/27 06:51:52;;;;;;;22.40;14.05;;;11.00;99.90;;;;;;5049926;28;20059;-48
2023/04/27 06:54:18;;;;;;;26.25;13.75;;;11.30;99.90;;;;;;5022768;28;20033;-50
2023/04/27 06:56:44;;;;;;;24.15;14.23;;;11.60;99.90;;;;;;5046649;28;20064;-46
2023/04/27 06:59:10;;;;;;;21.42;13.07;;;11.80;99.90;;;;;;5048427;28;20193;-50
2023/04/27 07:01:36;;;;;;;21.77;12.35;;;12.20;99.90;;;;;;5055558;28;20032;-45
2023/04/27 07:04:03;;;;;;;22.65;12.55;;;12.70;99.90;;;;;;5068671;28;20035;-47
2023/04/27 07:06:28;;;;;;;17.60;11.85;;;13.20;99.90;;;;;;5063529;28;20024;-49
2023/04/27 07:08:54;;;;;;;21.13;11.05;;;13.20;99.90;;;;;;5051833;28;20365;-46
2023/04/27 07:11:20;;;;;;;18.27;12.07;;;13.40;99.90;;;;;;5053733;28;20067;-46
2023/04/27 07:13:46;;;;;;;24.60;12.25;;;13.40;99.90;;;;;;5053370;28;20075;-47
2023/04/27 07:16:12;;;;;;;25.00;13.10;;;13.10;99.90;;;;;;5053884;28;20380;-48
2023/04/27 07:18:37;;;;;;;20.67;12.57;;;13.00;99.90;;;;;;5036047;28;20032;-51
2023/04/27 07:21:03;;;;;;;19.48;11.85;;;13.10;99.90;;;;;;5053166;28;20029;-50
2023/04/27 07:23:29;;;;;;;23.50;12.95;;;12.80;99.90;;;;;;5053581;28;20017;-52
2023/04/27 07:25:54;;;;;;;21.15;12.43;;;12.50;99.90;;;;;;5053509;28;20028;-45
2023/04/27 07:28:21;;;;;;;18.38;11.95;;;12.20;99.90;;;;;;5052808;28;20083;-50
2023/04/27 07:30:46;;;;;;;19.10;11.90;;;12.00;99.90;;;;;;5053580;28;20041;-55
2023/04/27 07:33:12;;;;;;;18.10;11.75;;;12.00;99.90;;;;;;5064369;28;20082;-47
2023/04/27 07:35:38;;;;;;;22.52;11.85;;;12.50;99.90;;;;;;5073174;28;20099;-51
2023/04/27 07:38:04;;;;;;;18.55;11.98;;;12.80;99.90;;;;;;5071465;28;20438;-50
2023/04/27 07:40:31;;;;;;;19.60;11.35;;;13.10;99.90;;;;;;5070980;28;20016;-47
2023/04/27 07:42:57;;;;;;;18.58;11.80;;;13.50;99.90;;;;;;5059439;28;20503;-46
2023/04/27 07:45:30;;;;;;;15.88;10.63;;;14.00;99.90;;;;;;5055504;28;20025;-39
2023/04/27 07:47:59;;;;;;;21.13;10.60;;;14.60;99.90;;;;;;5048752;28;20098;-49
2023/04/27 07:50:28;;;;;;;20.43;10.77;;;14.50;99.50;;;;;;5073302;28;20021;-54
2023/04/27 07:52:55;;;;;;;;;;;14.60;98.60;;;;;;5073489;28;20028;-52
2023/04/27 07:55:24;;;;;;;15.52;8.55;;;14.80;96.90;;;;;;5072910;28;19908;-49
2023/04/27 07:57:52;;;;;;;14.45;9.38;;;15.20;96.30;;;;;;5060821;28;20017;-53
2023/04/27 08:00:19;;;;;;;16.53;8.97;;;14.90;92.60;;;;;;5053290;28;20033;-53
2023/04/27 08:02:45;;;;;;;13.15;9.07;;;14.80;92.50;;;;;;5041486;28;20408;-43
2023/04/27 08:05:10;;;;;;;16.30;9.23;;;14.40;92.90;;;;;;5047056;28;20021;-48
2023/04/27 08:07:36;;;;;;;15.57;9.95;;;14.30;93.10;;;;;;5052597;28;20044;-45
2023/04/27 08:10:02;;;;;;;17.48;8.70;;;14.60;94.60;;;;;;5052638;28;20099;-46
2023/04/27 08:12:28;;;;;;;17.00;9.25;;;14.40;92.90;;;;;;5052240;28;20472;-49
2023/04/27 08:14:53;;;;;;;17.30;8.95;;;14.50;92.20;;;;;;5052834;28;20083;-55
2023/04/27 08:17:20;;;;;;;14.48;8.77;;;15.10;93.10;;;;;;5052079;28;20365;-46
2023/04/27 08:19:46;;;;;;;16.17;8.85;;;14.90;88.90;;;;;;5050936;28;20063;-50
2023/04/27 08:22:12;;;;;;;15.88;8.90;;;15.70;91.50;;;;;;5052353;28;20069;-47
2023/04/27 08:24:38;;;;;;;13.30;8.45;;;16.10;87.70;;;;;;5052013;28;20056;-49
2023/04/27 08:27:05;;;;;;;14.55;8.52;;;16.90;84.90;;;;;;5051794;28;20021;-47
2023/04/27 08:29:31;;;;;;;17.67;8.93;;;17.50;78.50;;;;;;5051827;28;20080;-52
2023/04/27 08:31:59;;;;;;;15.65;8.55;;;17.10;77.60;;;;;;5051877;28;20103;-47
2023/04/27 08:34:24;;;;;;;16.58;8.40;;;17.00;76.20;;;;;;5051654;28;20098;-46
2023/04/27 08:36:50;;;;;;;13.80;7.97;;;16.70;75.40;;;;;;5052223;28;20021;-43
2023/04/27 08:39:16;;;;;;;16.95;8.77;;;16.10;77.80;;;;;;5052016;28;20114;-52
2023/04/27 08:41:43;;;;;;;12.82;7.75;;;15.60;79.30;;;;;;5052262;28;20021;-50
2023/04/27 08:44:08;;;;;;;13.32;8.10;;;15.50;82.40;;;;;;5034244;28;20044;-49
2023/04/27 08:46:36;;;;;;;14.77;8.70;;;15.80;79.70;;;;;;5051776;28;20059;-46
2023/04/27 08:49:02;;;;;;;14.95;8.40;;;16.20;81.80;;;;;;5050245;28;20035;-54
2023/04/27 08:51:28;;;;;;;13.38;7.88;;;15.80;77.80;;;;;;5049775;28;20024;-44
2023/04/27 08:53:56;;;;;;;16.13;8.68;;;16.10;82.40;;;;;;5049302;28;20037;-45
2023/04/27 08:56:24;;;;;;;18.48;8.95;;;16.30;79.40;;;;;;5051532;28;20591;-44
2023/04/27 08:58:51;;;;;;;15.40;8.10;;;16.70;76.80;;;;;;5051623;28;20033;-48
2023/04/27 09:01:17;;;;;;;16.23;8.52;;;17.60;74.70;;;;;;5051900;28;20616;-45
2023/04/27 09:03:45;;;;;;;14.50;7.78;;;16.90;74.70;;;;;;5051226;28;20028;-42
2023/04/27 09:06:11;;;;;;;13.57;7.63;;;16.70;72.10;;;;;;5062519;28;20017;-47
2023/04/27 09:08:42;;;;;;;14.32;8.63;;;16.70;73.80;;;;;;5058166;28;20032;-46
2023/04/27 09:11:07;;;;;;;16.42;8.32;;;16.40;72.20;;;;;;5051418;28;20028;-46
2023/04/27 09:13:37;;;;;;;19.35;8.60;;;16.20;75.30;;;;;;5051466;28;20048;-52
2023/04/27 09:16:03;;;;;;;13.68;8.30;;;15.90;74.10;;;;;;5050793;28;20031;-52
2023/04/27 09:18:32;;;;;;;17.70;9.02;;;15.60;77.20;;;;;;5051282;28;20028;-49
2023/04/27 09:20:59;;;;;;;15.32;8.40;;;15.40;77.10;;;;;;5047715;28;20041;-52
2023/04/27 09:23:30;;;;;;;16.52;7.93;;;15.20;79.90;;;;;;5049181;28;20103;-49
2023/04/27 09:25:58;;;;;;;12.45;7.97;;;15.40;77.50;;;;;;5050820;28;20598;-50
2023/04/27 09:28:27;;;;;;;14.98;7.60;;;15.80;77.30;;;;;;5050137;28;20024;-48
2023/04/27 09:30:58;;;;;;;15.80;8.10;;;15.70;75.80;;;;;;5050445;28;20096;-47
2023/04/27 09:33:25;;;;;;;16.77;8.45;;;15.40;74.50;;;;;;5026099;28;20041;-51
2023/04/27 09:35:51;;;;;;;13.73;8.00;;;15.30;74.50;;;;;;5044480;28;20102;-48
2023/04/27 09:38:20;;;;;;;14.95;7.55;;;15.30;77.50;;;;;;5050844;28;20029;-54
2023/04/27 09:40:47;;;;;;;11.77;7.30;;;15.50;77.10;;;;;;5051055;28;20024;-45
2023/04/27 09:43:13;;;;;;;17.45;7.03;;;15.60;75.30;;;;;;5049882;28;20025;-45
2023/04/27 09:45:39;;;;;;;15.20;7.68;;;15.60;76.40;;;;;;5048411;28;20027;-45
2023/04/27 09:48:06;;;;;;;15.25;7.97;;;15.40;74.70;;;;;;5045036;28;20120;-48
2023/04/27 09:50:36;;;;;;;15.65;7.70;;;15.20;75.10;;;;;;5048732;28;20350;-52
2023/04/27 09:53:04;;;;;;;15.00;7.13;;;14.90;74.30;;;;;;5048674;28;20127;-53
2023/04/27 09:55:36;;;;;;;14.73;7.00;;;14.50;73.50;;;;;;5048686;28;20472;-53
2023/04/27 09:58:02;;;;;;;11.85;6.57;;;14.60;75.90;;;;;;5049213;28;20108;-48
2023/04/27 10:00:37;;;;;;;12.82;6.72;;;14.70;74.50;;;;;;5032404;28;20049;-49
2023/04/27 10:03:37;;;;;;;20.08;7.03;;;14.80;74.30;;;;;;5050653;28;20025;-52
2023/04/27 10:06:41;;;;;;;15.30;6.35;;;15.00;73.10;;;;;;5050668;28;20049;-50
2023/04/27 10:09:07;;;;;;;12.18;6.75;;;15.50;74.50;;;;;;5050610;28;20025;-47
2023/04/27 10:11:43;;;;;;;12.52;7.00;;;15.60;72.90;;;;;;5050677;28;20052;-45
2023/04/27 10:14:15;;;;;;;15.20;6.85;;;15.80;71.50;;;;;;5050154;28;20049;-46
2023/04/27 10:16:57;;;;;;;14.07;6.65;;;16.10;70.90;;;;;;5050263;28;20073;-46
2023/04/27 10:19:24;;;;;;;11.85;6.30;;;16.40;70.30;;;;;;5050295;28;20499;-44
2023/04/27 10:22:07;;;;;;;14.15;6.72;;;16.80;69.50;;;;;;5050650;28;20079;-52
2023/04/27 10:24:36;;;;;;;12.55;6.85;;;17.00;66.90;;;;;;5050448;28;20111;-55
2023/04/27 10:27:06;;;;;;;13.85;6.93;;;17.20;66.40;;;;;;5050234;28;20025;-49
2023/04/27 10:29:43;;;;;;;13.15;6.65;;;16.50;66.90;;;;;;5050275;28;20017;-50
2023/04/27 10:32:20;;;;;;;13.70;6.43;;;16.40;65.80;;;;;;5039949;28;20029;-47
2023/04/27 10:34:47;;;;;;;13.90;6.60;;;16.50;68.40;;;;;;5048956;28;20033;-46
2023/04/27 10:37:14;;;;;;;13.13;6.60;;;16.50;67.00;;;;;;5050372;28;20047;-51
2023/04/27 10:39:44;;;;;;;16.90;7.28;;;16.40;65.80;;;;;;5050062;28;20480;-52
2023/04/27 10:42:10;;;;;;;;;;;16.10;67.20;;;;;;5050676;28;20032;-51
2023/04/27 10:44:37;;;;;;;13.70;6.32;;;16.10;67.70;;;;;;5053804;28;19985;-45
2023/04/27 10:47:18;;;;;;;11.75;6.22;;;15.80;69.30;;;;;;5054540;28;20025;-44
2023/04/27 10:49:44;;;;;;;11.68;6.30;;;15.70;70.70;;;;;;5054192;28;20040;-46
2023/04/27 10:52:10;;;;;;;11.35;6.85;;;15.50;71.20;;;;;;5054156;28;20039;-45
2023/04/27 10:54:38;;;;;;;10.95;6.05;;;15.40;69.80;;;;;;5053832;28;20025;-51
2023/04/27 10:57:08;;;;;;;14.15;7.07;;;15.50;70.40;;;;;;5054578;28;20033;-45
2023/04/27 10:59:36;;;;;;;10.02;6.28;;;15.60;69.30;;;;;;5054037;28;20032;-48
2023/04/27 11:02:02;;;;;;;16.20;6.70;;;15.70;71.00;;;;;;5050598;28;20023;-44
2023/04/27 11:04:39;;;;;;;15.32;7.45;;;15.50;69.10;;;;;;5054135;28;20029;-45
2023/04/27 11:07:07;;;;;;;15.18;7.43;;;14.60;69.70;;;;;;5053704;28;20476;-55
2023/04/27 11:09:34;;;;;;;14.97;6.70;;;14.40;71.30;;;;;;5053798;28;20020;-52
2023/04/27 11:12:00;;;;;;;13.63;6.90;;;14.50;71.60;;;;;;5062400;28;20499;-49
2023/04/27 11:14:26;;;;;;;17.90;7.05;;;14.50;73.00;;;;;;5073713;28;20048;-49
2023/04/27 11:16:52;;;;;;;11.07;6.20;;;14.60;71.60;;;;;;5073706;28;20025;-48
2023/04/27 11:19:17;;;;;;;17.95;6.65;;;14.70;73.40;;;;;;5039082;28;20031;-49
2023/04/27 11:21:43;;;;;;;15.23;6.53;;;15.30;71.60;;;;;;5073467;28;20028;-49
2023/04/27 11:24:09;;;;;;;13.82;6.72;;;15.70;70.70;;;;;;5073542;28;20017;-49
2023/04/27 11:26:34;;;;;;;15.93;7.80;;;15.60;71.00;;;;;;5055891;28;20016;-50
2023/04/27 11:29:04;;;;;;;12.57;6.57;;;15.60;70.00;;;;;;5073298;28;20063;-45
2023/04/27 11:31:46;;;;;;;13.60;7.38;;;15.40;69.90;;;;;;5051289;28;20395;-51
2023/04/27 11:34:16;;;;;;;12.93;7.43;;;15.10;71.70;;;;;;5068504;28;20097;-50
2023/04/27 11:36:41;;;;;;;11.32;6.72;;;15.40;71.40;;;;;;5073466;28;20048;-48
2023/04/27 11:39:08;;;;;;;15.65;6.78;;;15.30;71.20;;;;;;5073340;28;20056;-50
2023/04/27 11:41:36;;;;;;;15.38;7.10;;;15.40;72.00;;;;;;5055603;28;20031;-50
2023/04/27 11:44:09;;;;;;;16.98;7.47;;;15.60;71.70;;;;;;5055291;28;20383;-49
2023/04/27 11:46:40;;;;;;;11.40;6.10;;;15.80;72.50;;;;;;5073008;28;20021;-48
2023/04/27 11:49:09;;;;;;;12.15;6.20;;;15.90;73.20;;;;;;5073358;28;20115;-48
2023/04/27 11:51:36;;;;;;;11.38;6.63;;;16.10;73.70;;;;;;5073038;28;20058;-48
2023/04/27 11:54:03;;;;;;;13.68;6.60;;;15.80;71.70;;;;;;5072848;28;20068;-50
2023/04/27 11:56:40;;;;;;;16.58;7.60;;;15.80;72.20;;;;;;5072945;28;20020;-49
2023/04/27 11:59:18;;;;;;;12.50;7.25;;;15.50;72.50;;;;;;5073065;28;20024;-46
2023/04/27 12:01:43;;;;;;;9.77;6.55;;;15.20;72.90;;;;;;5070680;28;20012;-46
2023/04/27 12:04:09;;;;;;;13.98;7.25;;;15.00;74.60;;;;;;5073015;28;20039;-47
2023/04/27 12:06:35;;;;;;;13.60;6.93;;;15.00;75.40;;;;;;5072588;28;20025;-49
2023/04/27 12:09:01;;;;;;;14.82;7.05;;;14.90;76.30;;;;;;5056156;28;20047;-50
2023/04/27 12:11:26;;;;;;;11.25;7.00;;;14.90;76.20;;;;;;5056926;28;20039;-46
2023/04/27 12:13:53;;;;;;;12.80;6.78;;;14.90;76.20;;;;;;5072407;28;20441;-52
2023/04/27 12:16:21;;;;;;;11.77;6.57;;;14.90;78.90;;;;;;5072801;28;20021;-51
2023/04/27 12:18:48;;;;;;;12.63;6.85;;;15.10;79.70;;;;;;5072669;28;20411;-47
2023/04/27 12:21:14;;;;;;;14.10;7.43;;;15.40;78.30;;;;;;5072476;28;20487;-49
2023/04/27 12:23:40;;;;;;;14.82;7.28;;;15.30;76.20;;;;;;5072597;28;20032;-54
2023/04/27 12:26:05;;;;;;;12.18;6.93;;;15.30;74.90;;;;;;5072387;28;20108;-53
2023/04/27 12:28:31;;;;;;;13.57;7.20;;;15.50;76.00;;;;;;5072403;28;20071;-48
2023/04/27 12:30:57;;;;;;;12.38;7.05;;;15.50;75.20;;;;;;5072182;28;20087;-50
2023/04/27 12:33:22;;;;;;;11.40;6.28;;;15.80;74.70;;;;;;5059267;28;20062;-49
2023/04/27 12:35:48;;;;;;;11.13;7.18;;;16.20;73.60;;;;;;5072484;28;20035;-46